Time;durP1;ratioP1;P1;durP2;ratioP2;P2;SDS_P1;SDS_P2;PMS_P1;PMS_P2;Temp;Humidity;BMP_temperature;BMP_pressure;BME280_temperature;BME280_humidity;BME280_pressure;Samples;Min_cycle;Max_cycle;Signal;HPM_P1;HPM_P2
2023/10/26 00:02:00;;;;;;;51.53;22.30;;;6.90;99.90;;;;;;4989888;28;20068;-59
2023/10/26 00:04:28;;;;;;;59.97;22.35;;;6.90;99.90;;;;;;4990416;28;20050;-58
2023/10/26 00:06:55;;;;;;;58.45;23.05;;;6.90;99.90;;;;;;4989583;28;20046;-57
2023/10/26 00:09:23;;;;;;;62.30;22.75;;;6.90;99.90;;;;;;4985016;28;20391;-57
2023/10/26 00:11:51;;;;;;;59.92;22.08;;;6.90;99.90;;;;;;4984431;28;20050;-57
2023/10/26 00:14:19;;;;;;;56.58;21.77;;;7.00;99.90;;;;;;4990111;28;20438;-58
2023/10/26 00:16:46;;;;;;;53.10;22.02;;;7.00;99.90;;;;;;4989721;28;20054;-60
2023/10/26 00:19:14;;;;;;;55.28;21.52;;;7.00;99.90;;;;;;4990166;28;20046;-60
2023/10/26 00:21:42;;;;;;;57.05;21.83;;;7.00;99.90;;;;;;4989013;28;20057;-61
2023/10/26 00:24:10;;;;;;;51.08;21.60;;;7.00;99.90;;;;;;4986939;28;20053;-60
2023/10/26 00:26:40;;;;;;;59.30;20.73;;;7.00;99.90;;;;;;4970654;28;20073;-58
2023/10/26 00:29:07;;;;;;;54.75;21.00;;;7.00;99.90;;;;;;4980550;28;20050;-61
2023/10/26 00:31:35;;;;;;;60.42;21.50;;;7.00;99.90;;;;;;4989956;28;20046;-61
2023/10/26 00:34:03;;;;;;;56.55;21.58;;;7.00;99.90;;;;;;4989147;28;20055;-58
2023/10/26 00:36:30;;;;;;;56.08;21.15;;;7.00;99.90;;;;;;4986520;28;20034;-58
2023/10/26 00:38:59;;;;;;;56.50;21.30;;;7.10;99.90;;;;;;4980782;28;20519;-59
2023/10/26 00:41:26;;;;;;;56.92;22.02;;;7.10;99.90;;;;;;4989399;28;20499;-58
2023/10/26 00:43:54;;;;;;;64.20;23.00;;;7.10;99.90;;;;;;4989628;28;20058;-58
2023/10/26 00:46:22;;;;;;;56.85;22.27;;;7.10;99.90;;;;;;4988075;28;20053;-59
2023/10/26 00:48:51;;;;;;;68.47;22.45;;;7.20;99.90;;;;;;4989305;28;20057;-57
2023/10/26 00:51:19;;;;;;;60.92;22.55;;;7.20;99.90;;;;;;4988914;28;20077;-57
2023/10/26 00:53:47;;;;;;;64.97;22.55;;;7.20;99.90;;;;;;4989371;28;20069;-58
2023/10/26 00:56:19;;;;;;;66.85;22.65;;;7.20;99.90;;;;;;4987616;28;20050;-58
2023/10/26 00:58:48;;;;;;;66.07;22.23;;;7.30;99.90;;;;;;4985070;28;20039;-58
2023/10/26 01:01:16;;;;;;;67.22;22.23;;;7.30;99.90;;;;;;4972100;28;20042;-59
2023/10/26 01:03:46;;;;;;;61.25;21.10;;;7.30;99.90;;;;;;4982634;28;20045;-61
2023/10/26 01:06:13;;;;;;;60.00;23.10;;;7.40;99.90;;;;;;4984676;28;20058;-59
2023/10/26 01:08:41;;;;;;;54.15;21.58;;;7.30;99.90;;;;;;4988299;28;20161;-59
2023/10/26 01:11:09;;;;;;;64.07;21.85;;;7.40;99.90;;;;;;4987974;28;20142;-58
2023/10/26 01:13:37;;;;;;;58.67;20.90;;;7.40;99.90;;;;;;4988608;28;20042;-58
2023/10/26 01:16:06;;;;;;;49.67;19.02;;;7.40;99.90;;;;;;4987632;28;20061;-57
2023/10/26 01:18:34;;;;;;;56.70;20.92;;;7.40;99.90;;;;;;4988205;28;20058;-61
2023/10/26 01:21:02;;;;;;;59.25;21.70;;;7.40;99.90;;;;;;4988013;28;20058;-61
2023/10/26 01:23:30;;;;;;;53.55;20.45;;;7.40;99.90;;;;;;4988882;28;20046;-60
2023/10/26 01:26:00;;;;;;;51.25;19.75;;;7.40;99.90;;;;;;4988293;28;20387;-62
2023/10/26 01:28:28;;;;;;;48.60;19.70;;;7.40;99.90;;;;;;4988740;28;20050;-61
2023/10/26 01:30:56;;;;;;;56.08;21.38;;;7.40;99.90;;;;;;4981605;28;20061;-61
2023/10/26 01:33:23;;;;;;;54.28;21.80;;;7.50;99.90;;;;;;4986832;28;20050;-60
2023/10/26 01:35:51;;;;;;;54.05;20.63;;;7.40;99.90;;;;;;4988300;28;20053;-61
2023/10/26 01:38:19;;;;;;;52.75;21.52;;;7.50;99.90;;;;;;4984018;28;20583;-61
2023/10/26 01:40:48;;;;;;;55.28;19.83;;;7.50;99.90;;;;;;4972431;28;20047;-60
2023/10/26 01:43:16;;;;;;;47.80;19.75;;;7.50;99.90;;;;;;4984146;28;20039;-60
2023/10/26 01:45:44;;;;;;;52.95;20.20;;;7.50;99.90;;;;;;4978134;28;20057;-58
2023/10/26 01:48:12;;;;;;;53.58;20.40;;;7.50;99.90;;;;;;4965164;28;20050;-60
2023/10/26 01:50:40;;;;;;;51.42;20.88;;;7.50;99.90;;;;;;4972300;28;20084;-60
2023/10/26 01:53:07;;;;;;;49.72;20.23;;;7.50;99.90;;;;;;4977415;28;20039;-60
2023/10/26 01:55:35;;;;;;;61.80;21.40;;;7.60;99.90;;;;;;4992017;28;20422;-60
2023/10/26 01:58:03;;;;;;;54.33;20.23;;;7.60;99.90;;;;;;4991347;28;20049;-59
2023/10/26 02:00:30;;;;;;;62.60;21.88;;;7.60;99.90;;;;;;4990167;28;20057;-60
2023/10/26 02:02:59;;;;;;;63.22;22.77;;;7.60;99.90;;;;;;4990726;28;20537;-60
2023/10/26 02:05:27;;;;;;;59.65;21.58;;;7.60;99.90;;;;;;4984678;28;20039;-60
2023/10/26 02:07:55;;;;;;;62.50;22.33;;;7.60;99.90;;;;;;4987176;28;20054;-59
2023/10/26 02:10:29;;;;;;;60.97;22.02;;;7.60;99.90;;;;;;4994914;28;20054;-60
2023/10/26 02:12:56;;;;;;;59.28;22.77;;;7.60;99.90;;;;;;4996832;28;20054;-60
2023/10/26 02:15:24;;;;;;;63.25;21.15;;;7.60;99.90;;;;;;4997462;28;20050;-58
2023/10/26 02:17:52;;;;;;;66.85;23.27;;;7.60;99.90;;;;;;4996868;28;20049;-57
2023/10/26 02:20:20;;;;;;;64.88;23.55;;;7.70;99.90;;;;;;4996939;28;20038;-56
2023/10/26 02:22:48;;;;;;;65.03;23.52;;;7.70;99.90;;;;;;4997316;28;20053;-57
2023/10/26 02:25:16;;;;;;;67.28;23.48;;;7.70;99.90;;;;;;4997118;28;20045;-59
2023/10/26 02:27:44;;;;;;;58.15;21.40;;;7.70;99.90;;;;;;4997406;28;20049;-58
2023/10/26 02:30:12;;;;;;;63.00;21.02;;;7.70;99.90;;;;;;4996920;28;20049;-56
2023/10/26 02:32:40;;;;;;;65.57;23.45;;;7.80;99.90;;;;;;4996874;28;20049;-56
2023/10/26 02:35:09;;;;;;;64.95;22.65;;;7.80;99.90;;;;;;4995374;28;20047;-57
2023/10/26 02:37:39;;;;;;;64.68;24.05;;;7.80;99.90;;;;;;4994823;28;20054;-58
2023/10/26 02:40:10;;;;;;;69.72;24.23;;;7.80;99.90;;;;;;4993168;28;20430;-57
2023/10/26 02:42:38;;;;;;;66.93;24.25;;;7.80;99.90;;;;;;4997594;28;20062;-58
2023/10/26 02:45:08;;;;;;;68.75;25.27;;;7.80;99.90;;;;;;4997329;28;20050;-58
2023/10/26 02:47:37;;;;;;;63.13;23.63;;;7.80;99.90;;;;;;4998017;28;20057;-59
2023/10/26 02:50:06;;;;;;;72.30;24.67;;;7.80;99.90;;;;;;4995916;28;20058;-58
2023/10/26 02:52:34;;;;;;;77.10;23.95;;;7.80;99.90;;;;;;4997938;28;20057;-58
2023/10/26 02:55:05;;;;;;;75.53;25.38;;;7.80;99.90;;;;;;4997568;28;20486;-56
2023/10/26 02:57:33;;;;;;;75.30;25.95;;;7.70;99.90;;;;;;4997175;28;20058;-58
2023/10/26 03:00:01;;;;;;;68.13;24.30;;;7.70;99.90;;;;;;4997592;28;20053;-58
2023/10/26 03:02:28;;;;;;;67.63;24.73;;;7.70;99.90;;;;;;4997161;28;20402;-57
2023/10/26 03:04:56;;;;;;;74.88;24.05;;;7.70;99.90;;;;;;4997835;28;20114;-57
2023/10/26 03:07:24;;;;;;;70.20;24.27;;;7.70;99.90;;;;;;4995914;28;20053;-58
2023/10/26 03:09:52;;;;;;;78.07;24.55;;;7.70;99.90;;;;;;4997828;28;20053;-58
2023/10/26 03:12:21;;;;;;;81.10;25.98;;;7.70;99.90;;;;;;4997967;28;20057;-59
2023/10/26 03:14:48;;;;;;;83.80;25.77;;;7.80;99.90;;;;;;4996839;28;20446;-58
2023/10/26 03:17:16;;;;;;;77.28;25.77;;;7.80;99.90;;;;;;4993400;28;20518;-60
2023/10/26 03:19:44;;;;;;;69.18;24.65;;;7.80;99.90;;;;;;4981637;28;20046;-60
2023/10/26 03:22:12;;;;;;;72.22;23.48;;;7.90;99.90;;;;;;4991789;28;20089;-61
2023/10/26 03:24:40;;;;;;;76.18;25.20;;;7.90;99.90;;;;;;4989465;28;20046;-60
2023/10/26 03:27:09;;;;;;;77.68;25.38;;;8.00;99.90;;;;;;4993284;28;20046;-59
2023/10/26 03:29:37;;;;;;;81.68;25.30;;;8.00;99.90;;;;;;4993884;28;21473;-60
2023/10/26 03:32:06;;;;;;;78.43;23.67;;;8.00;99.90;;;;;;4994279;28;20045;-60
2023/10/26 03:34:35;;;;;;;78.40;25.55;;;8.00;99.90;;;;;;4993060;28;20054;-58
2023/10/26 03:37:02;;;;;;;69.95;22.92;;;8.00;99.90;;;;;;4992374;28;20041;-60
2023/10/26 03:39:30;;;;;;;76.10;24.83;;;8.10;99.90;;;;;;4991727;28;22077;-58
2023/10/26 03:41:58;;;;;;;76.75;23.58;;;8.10;99.90;;;;;;4988071;28;20046;-60
2023/10/26 03:44:26;;;;;;;83.28;23.65;;;8.10;99.90;;;;;;4974830;28;20038;-61
2023/10/26 03:46:53;;;;;;;88.88;24.23;;;8.10;99.90;;;;;;4980261;28;20064;-61
2023/10/26 03:49:21;;;;;;;80.85;24.77;;;8.20;99.90;;;;;;4994023;28;20049;-60
2023/10/26 03:51:49;;;;;;;86.45;25.45;;;8.10;99.90;;;;;;4993938;28;20049;-59
2023/10/26 03:54:17;;;;;;;79.43;24.95;;;8.20;99.90;;;;;;4993138;28;20058;-60
2023/10/26 03:56:45;;;;;;;85.38;23.98;;;8.20;99.90;;;;;;4992614;28;20514;-58
2023/10/26 03:59:12;;;;;;;77.88;23.98;;;8.20;99.90;;;;;;4988764;28;20038;-59
2023/10/26 04:01:40;;;;;;;72.93;23.60;;;8.20;99.90;;;;;;4972733;28;20062;-59
2023/10/26 04:04:08;;;;;;;91.07;25.35;;;8.20;99.90;;;;;;4974643;28;20047;-59
2023/10/26 04:06:36;;;;;;;79.20;22.73;;;8.20;99.90;;;;;;4992185;28;20046;-59
2023/10/26 04:09:04;;;;;;;68.20;21.77;;;8.30;99.90;;;;;;4993834;28;20053;-60
2023/10/26 04:11:31;;;;;;;72.43;22.73;;;8.30;99.90;;;;;;4992421;28;20061;-58
2023/10/26 04:13:59;;;;;;;68.05;23.15;;;8.30;99.90;;;;;;4990383;28;20062;-60
2023/10/26 04:16:27;;;;;;;72.75;21.35;;;8.30;99.90;;;;;;4992895;28;20049;-60
2023/10/26 04:18:55;;;;;;;72.45;22.90;;;8.30;99.90;;;;;;4993595;28;20053;-60
2023/10/26 04:21:22;;;;;;;70.22;21.25;;;8.30;99.90;;;;;;4992826;28;20482;-60
2023/10/26 04:23:50;;;;;;;69.22;22.25;;;8.30;99.90;;;;;;4990061;28;20038;-60
2023/10/26 04:26:18;;;;;;;60.38;20.58;;;8.40;99.90;;;;;;4993604;28;20066;-60
2023/10/26 04:28:45;;;;;;;60.35;21.13;;;8.30;99.90;;;;;;4992493;28;20490;-61
2023/10/26 04:31:20;;;;;;;58.58;19.63;;;8.40;99.90;;;;;;4991989;28;20054;-60
2023/10/26 04:33:48;;;;;;;53.72;20.10;;;8.40;99.90;;;;;;4990921;28;20051;-60
2023/10/26 04:36:16;;;;;;;60.88;19.83;;;8.40;99.90;;;;;;4990224;28;20410;-60
2023/10/26 04:38:44;;;;;;;51.50;17.92;;;8.40;99.90;;;;;;4992496;28;20046;-60
2023/10/26 04:41:11;;;;;;;54.65;19.65;;;8.40;99.90;;;;;;4989478;28;20053;-60
2023/10/26 04:43:39;;;;;;;62.28;18.55;;;8.40;99.90;;;;;;4992646;28;20061;-58
2023/10/26 04:46:07;;;;;;;53.78;18.27;;;8.40;99.90;;;;;;4985964;28;20050;-58
2023/10/26 04:48:35;;;;;;;54.05;19.20;;;8.40;99.90;;;;;;4982576;28;20042;-58
2023/10/26 04:51:02;;;;;;;52.92;18.00;;;8.50;99.90;;;;;;4988399;28;20053;-57
2023/10/26 04:53:30;;;;;;;49.42;17.63;;;8.50;99.90;;;;;;4983585;28;20054;-57
2023/10/26 04:55:58;;;;;;;52.20;20.20;;;8.50;99.90;;;;;;4989483;28;20053;-56
2023/10/26 04:58:25;;;;;;;52.85;18.50;;;8.50;99.90;;;;;;4989335;28;20474;-57
2023/10/26 05:00:53;;;;;;;56.60;18.27;;;8.50;99.90;;;;;;4988911;28;20046;-56
2023/10/26 05:03:20;;;;;;;47.17;17.35;;;8.50;99.90;;;;;;4971966;28;20050;-57
2023/10/26 05:05:48;;;;;;;55.15;19.23;;;8.50;99.90;;;;;;4971786;28;20046;-57
2023/10/26 05:08:16;;;;;;;51.60;18.85;;;8.50;99.90;;;;;;4984481;28;20057;-57
2023/10/26 05:10:44;;;;;;;56.33;19.02;;;8.50;99.90;;;;;;4988548;28;20039;-56
2023/10/26 05:13:12;;;;;;;53.88;18.17;;;8.50;99.90;;;;;;4989004;28;20398;-56
2023/10/26 05:15:44;;;;;;;52.85;18.13;;;8.60;99.90;;;;;;4988666;28;20061;-57
2023/10/26 05:18:11;;;;;;;63.25;20.92;;;8.50;99.90;;;;;;4984916;28;20057;-58
2023/10/26 05:20:39;;;;;;;56.45;19.17;;;8.50;99.90;;;;;;4984617;28;20878;-57
2023/10/26 05:23:08;;;;;;;57.10;18.67;;;8.50;99.90;;;;;;4983954;28;20042;-57
2023/10/26 05:25:36;;;;;;;55.28;19.52;;;8.50;99.90;;;;;;4984752;28;20061;-57
2023/10/26 05:28:04;;;;;;;56.92;18.35;;;8.50;99.90;;;;;;4988374;28;20065;-56
2023/10/26 05:30:31;;;;;;;52.42;17.83;;;8.50;99.90;;;;;;4988893;28;20031;-57
2023/10/26 05:32:59;;;;;;;58.55;18.70;;;8.50;99.90;;;;;;4984603;28;20461;-57
2023/10/26 05:35:27;;;;;;;55.95;19.88;;;8.50;99.90;;;;;;4985332;28;20065;-58
2023/10/26 05:37:55;;;;;;;50.75;16.85;;;8.50;99.90;;;;;;4981974;28;20042;-56
2023/10/26 05:40:22;;;;;;;55.75;17.98;;;8.50;99.90;;;;;;4983732;28;20050;-57
2023/10/26 05:42:51;;;;;;;51.15;18.10;;;8.50;99.90;;;;;;4983966;28;20054;-57
2023/10/26 05:45:18;;;;;;;58.63;18.17;;;8.50;99.90;;;;;;4983989;28;20047;-57
2023/10/26 05:47:53;;;;;;;68.38;18.92;;;8.50;99.90;;;;;;4985089;28;20097;-56
2023/10/26 05:50:21;;;;;;;55.60;18.30;;;8.50;99.90;;;;;;4988060;28;20057;-57
2023/10/26 05:52:48;;;;;;;51.65;16.08;;;8.50;99.90;;;;;;4984628;28;20039;-57
2023/10/26 05:55:16;;;;;;;53.55;16.90;;;8.50;99.90;;;;;;4988091;28;20050;-58
2023/10/26 05:57:44;;;;;;;51.28;16.60;;;8.50;99.90;;;;;;4988483;28;20046;-58
2023/10/26 06:00:12;;;;;;;58.13;18.15;;;8.50;99.90;;;;;;4984797;28;20050;-57
2023/10/26 06:02:40;;;;;;;57.17;16.48;;;8.50;99.90;;;;;;4985085;28;20057;-58
2023/10/26 06:05:08;;;;;;;61.25;18.13;;;8.50;99.90;;;;;;4979531;28;20097;-58
2023/10/26 06:07:35;;;;;;;59.50;18.67;;;8.50;99.90;;;;;;4981957;28;20050;-58
2023/10/26 06:10:05;;;;;;;68.03;19.50;;;8.50;99.90;;;;;;4987099;28;20057;-58
2023/10/26 06:12:33;;;;;;;;;;;8.50;99.90;;;;;;4988364;28;20050;-58
2023/10/26 06:15:01;;;;;;;64.35;18.23;;;8.50;99.90;;;;;;4987816;28;20691;-58
2023/10/26 06:17:28;;;;;;;68.72;18.70;;;8.50;99.90;;;;;;4988001;28;20050;-58
2023/10/26 06:19:56;;;;;;;64.43;20.02;;;8.50;99.90;;;;;;4988523;28;20042;-58
2023/10/26 06:22:24;;;;;;;78.63;19.98;;;8.50;99.90;;;;;;4987414;28;20046;-57
2023/10/26 06:24:51;;;;;;;75.88;20.73;;;8.50;99.90;;;;;;4986633;28;20069;-58
2023/10/26 06:27:19;;;;;;;73.53;18.77;;;8.50;99.90;;;;;;4987139;28;20097;-57
2023/10/26 06:29:51;;;;;;;75.15;21.02;;;8.40;99.90;;;;;;4987431;28;20046;-56
2023/10/26 06:32:20;;;;;;;73.53;21.08;;;8.40;99.90;;;;;;4984529;28;20047;-58
2023/10/26 06:34:50;;;;;;;79.45;20.02;;;8.40;99.90;;;;;;4973233;28;20965;-57
2023/10/26 06:37:18;;;;;;;94.25;21.38;;;8.40;99.90;;;;;;4982083;28;20046;-58
2023/10/26 06:39:45;;;;;;;80.80;21.50;;;8.40;99.90;;;;;;4982668;28;20057;-57
2023/10/26 06:42:13;;;;;;;79.78;21.25;;;8.40;99.90;;;;;;4973241;28;20050;-57
2023/10/26 06:44:41;;;;;;;100.35;22.38;;;8.40;99.90;;;;;;4978508;28;20054;-57
2023/10/26 06:47:09;;;;;;;86.18;20.92;;;8.40;99.90;;;;;;4979401;28;20050;-57
2023/10/26 06:49:36;;;;;;;76.93;19.77;;;8.40;99.90;;;;;;4969823;28;20047;-57
2023/10/26 06:52:04;;;;;;;85.18;21.70;;;8.40;99.90;;;;;;4969041;28;20498;-56
2023/10/26 06:54:32;;;;;;;76.53;20.00;;;8.40;99.90;;;;;;4972984;28;20047;-57
2023/10/26 06:56:59;;;;;;;76.88;21.65;;;8.40;99.90;;;;;;4997384;28;20054;-58
2023/10/26 06:59:28;;;;;;;69.68;20.00;;;8.40;99.90;;;;;;4986993;28;20039;-57
2023/10/26 07:01:57;;;;;;;79.68;20.55;;;8.40;99.90;;;;;;4980875;28;20053;-58
2023/10/26 07:04:38;;;;;;;74.93;19.73;;;8.40;99.90;;;;;;4972925;28;20047;-58
2023/10/26 07:07:08;;;;;;;72.75;18.45;;;8.40;99.90;;;;;;4975231;28;20050;-57
2023/10/26 07:09:37;;;;;;;64.10;18.75;;;8.40;99.90;;;;;;4980203;28;20506;-57
2023/10/26 07:12:05;;;;;;;58.88;17.17;;;8.40;99.90;;;;;;4980351;28;20047;-58
2023/10/26 07:14:33;;;;;;;56.88;17.15;;;8.40;99.90;;;;;;4991267;28;20053;-57
2023/10/26 07:17:00;;;;;;;61.47;16.58;;;8.50;99.90;;;;;;4989360;28;20050;-57
2023/10/26 07:19:28;;;;;;;57.67;16.98;;;8.50;99.90;;;;;;4990966;28;20050;-57
2023/10/26 07:21:55;;;;;;;59.75;16.85;;;8.50;99.90;;;;;;4989114;28;20053;-57
2023/10/26 07:24:23;;;;;;;55.45;15.88;;;8.50;99.90;;;;;;4983651;28;20053;-57
2023/10/26 07:26:51;;;;;;;49.25;15.98;;;8.50;99.90;;;;;;4991052;28;20474;-56
2023/10/26 07:29:19;;;;;;;53.05;15.10;;;8.50;99.90;;;;;;4989361;28;20482;-57
2023/10/26 07:31:46;;;;;;;48.13;14.88;;;8.50;99.90;;;;;;4991092;28;20042;-58
2023/10/26 07:34:17;;;;;;;51.45;14.40;;;8.60;99.90;;;;;;4988002;28;20046;-57
2023/10/26 07:36:45;;;;;;;52.33;14.38;;;8.60;99.90;;;;;;4973638;28;20391;-58
2023/10/26 07:39:15;;;;;;;48.00;13.93;;;8.60;99.90;;;;;;4973560;28;20046;-57
2023/10/26 07:42:04;;;;;;;46.53;13.77;;;8.60;99.90;;;;;;4972906;28;20049;-56
2023/10/26 07:44:37;;;;;;;45.80;13.77;;;8.60;99.90;;;;;;4977309;28;20039;-57
2023/10/26 07:47:08;;;;;;;37.10;12.75;;;8.70;99.90;;;;;;4990207;28;20051;-58
2023/10/26 07:49:36;;;;;;;37.67;12.95;;;8.70;99.90;;;;;;4990683;28;20050;-57
2023/10/26 07:52:05;;;;;;;48.35;13.18;;;8.70;99.90;;;;;;4989961;28;20166;-56
2023/10/26 07:54:32;;;;;;;37.20;11.65;;;8.70;99.90;;;;;;4979636;28;20483;-57
2023/10/26 07:57:00;;;;;;;41.28;12.85;;;8.80;99.90;;;;;;4982323;28;20042;-56
2023/10/26 07:59:30;;;;;;;39.50;12.05;;;8.80;99.90;;;;;;4990295;28;20046;-57
2023/10/26 08:01:57;;;;;;;44.85;13.20;;;8.80;99.90;;;;;;4990442;28;20054;-56
2023/10/26 08:04:26;;;;;;;43.03;12.88;;;8.90;99.90;;;;;;4990613;28;20049;-57
2023/10/26 08:06:54;;;;;;;38.33;12.50;;;8.90;99.90;;;;;;4989863;28;20054;-57
2023/10/26 08:09:22;;;;;;;35.90;11.85;;;9.00;99.90;;;;;;4983968;28;20303;-55
2023/10/26 08:11:49;;;;;;;37.75;12.75;;;9.00;99.90;;;;;;4979513;28;20050;-56
2023/10/26 08:14:18;;;;;;;48.58;13.95;;;9.00;99.90;;;;;;4980409;28;20038;-56
2023/10/26 08:17:05;;;;;;;38.47;11.93;;;9.10;99.90;;;;;;4981363;28;20079;-57
2023/10/26 08:19:33;;;;;;;36.80;12.07;;;9.10;99.90;;;;;;4975350;28;20050;-57
2023/10/26 08:22:01;;;;;;;31.08;11.43;;;9.10;99.90;;;;;;4981283;28;20399;-57
2023/10/26 08:24:29;;;;;;;31.17;11.77;;;9.10;99.90;;;;;;4983652;28;20062;-57
2023/10/26 08:26:57;;;;;;;38.92;11.40;;;9.10;99.90;;;;;;4972510;28;20050;-57
2023/10/26 08:29:24;;;;;;;34.25;12.20;;;9.20;99.90;;;;;;4969453;28;20081;-56
2023/10/26 08:31:56;;;;;;;28.55;11.45;;;9.20;99.90;;;;;;4979821;28;20054;-56
2023/10/26 08:34:25;;;;;;;31.40;10.85;;;9.20;99.90;;;;;;4983006;28;20070;-56
2023/10/26 08:36:53;;;;;;;27.52;10.63;;;9.20;99.90;;;;;;4973643;28;20054;-57
2023/10/26 08:39:40;;;;;;;27.85;10.10;;;9.20;99.90;;;;;;4978393;28;20061;-57
2023/10/26 08:42:08;;;;;;;29.10;9.60;;;9.20;99.90;;;;;;4972241;28;20046;-57
2023/10/26 08:44:37;;;;;;;23.48;9.77;;;9.20;99.90;;;;;;4989548;28;20046;-57
2023/10/26 08:47:05;;;;;;;23.85;9.82;;;9.30;99.90;;;;;;4986840;28;20089;-57
2023/10/26 08:49:36;;;;;;;21.03;8.40;;;9.30;99.90;;;;;;4989252;28;20061;-57
2023/10/26 08:52:04;;;;;;;;;;;9.30;99.90;;;;;;4986179;28;20057;-56
2023/10/26 08:54:32;;;;;;;20.15;8.20;;;9.30;99.90;;;;;;4980558;28;19921;-57
2023/10/26 08:57:08;;;;;;;18.25;7.68;;;9.30;99.90;;;;;;4976271;28;20046;-56
2023/10/26 08:59:37;;;;;;;21.63;8.52;;;9.30;99.90;;;;;;4974638;28;20047;-57
2023/10/26 09:02:04;;;;;;;20.88;8.75;;;9.30;99.90;;;;;;4989754;28;20510;-57
2023/10/26 09:04:32;;;;;;;20.15;7.95;;;9.30;99.90;;;;;;4989169;28;20050;-57
2023/10/26 09:07:00;;;;;;;19.58;7.25;;;9.30;99.90;;;;;;4985597;28;20524;-57
2023/10/26 09:09:28;;;;;;;13.15;7.05;;;9.40;99.90;;;;;;4965836;28;20042;-57
2023/10/26 09:12:08;;;;;;;15.13;6.32;;;9.40;99.90;;;;;;4967751;28;20053;-57
2023/10/26 09:14:35;;;;;;;;;;;9.50;99.90;;;;;;4978286;28;20043;-57
2023/10/26 09:17:04;;;;;;;15.73;7.03;;;9.60;99.90;;;;;;4970248;28;19922;-57
2023/10/26 09:19:38;;;;;;;11.30;5.88;;;9.60;99.90;;;;;;4987304;28;20406;-57
2023/10/26 09:22:08;;;;;;;11.98;5.30;;;9.70;99.90;;;;;;4988184;28;20054;-56
2023/10/26 09:24:36;;;;;;;;;;;9.80;99.90;;;;;;4986480;28;20039;-57
2023/10/26 09:27:04;;;;;;;12.63;5.90;;;9.80;99.90;;;;;;4976653;28;19949;-57
2023/10/26 09:29:39;;;;;;;12.77;6.20;;;9.90;99.90;;;;;;4988931;28;20046;-57
2023/10/26 09:32:08;;;;;;;11.38;5.93;;;9.90;99.90;;;;;;4985756;28;20050;-57
2023/10/26 09:34:44;;;;;;;16.77;6.53;;;9.90;99.90;;;;;;4983777;28;20054;-57
2023/10/26 09:37:13;;;;;;;12.95;6.57;;;10.00;99.90;;;;;;4981472;28;20045;-57
2023/10/26 09:39:41;;;;;;;16.73;7.40;;;10.10;99.90;;;;;;4976520;28;20081;-57
2023/10/26 09:42:09;;;;;;;15.95;7.75;;;10.10;99.90;;;;;;4969566;28;20058;-56
2023/10/26 09:44:39;;;;;;;16.23;7.50;;;10.10;99.90;;;;;;4983155;28;20138;-56
2023/10/26 09:47:08;;;;;;;30.17;9.95;;;10.20;99.90;;;;;;4988754;28;20057;-57
2023/10/26 09:49:36;;;;;;;15.70;7.70;;;10.20;99.90;;;;;;4970289;28;20165;-56
2023/10/26 09:52:04;;;;;;;17.23;8.48;;;10.30;99.90;;;;;;4969595;28;20039;-56
2023/10/26 09:54:35;;;;;;;18.38;9.32;;;10.30;99.90;;;;;;4984453;28;20045;-56
2023/10/26 09:57:26;;;;;;;20.13;9.27;;;10.30;99.90;;;;;;4980669;28;20047;-56
2023/10/26 09:59:58;;;;;;;22.58;9.15;;;10.40;99.90;;;;;;4965754;28;20061;-56
2023/10/26 10:02:27;;;;;;;18.45;8.93;;;10.40;99.90;;;;;;4979433;28;20042;-57
2023/10/26 10:04:55;;;;;;;20.70;9.40;;;10.40;99.90;;;;;;4984765;28;20057;-57
2023/10/26 10:07:44;;;;;;;17.80;8.32;;;10.40;99.90;;;;;;4985083;28;20617;-57
2023/10/26 10:10:13;;;;;;;21.92;9.95;;;10.40;99.90;;;;;;4983842;28;20057;-57
2023/10/26 10:12:42;;;;;;;20.75;9.63;;;10.40;99.90;;;;;;4980850;28;20422;-57
2023/10/26 10:15:11;;;;;;;18.13;9.07;;;10.50;99.90;;;;;;4985679;28;20047;-57
2023/10/26 10:17:45;;;;;;;19.33;9.38;;;10.50;99.90;;;;;;4985018;28;20038;-57
2023/10/26 10:20:18;;;;;;;17.27;8.93;;;10.60;99.90;;;;;;4986405;28;20046;-57
2023/10/26 10:22:47;;;;;;;19.65;8.70;;;10.60;99.90;;;;;;4988455;28;20047;-57
2023/10/26 10:25:23;;;;;;;17.25;8.38;;;10.60;99.90;;;;;;4983905;28;20635;-58
2023/10/26 10:27:50;;;;;;;15.15;7.97;;;10.70;99.90;;;;;;4982061;28;20043;-56
2023/10/26 10:30:21;;;;;;;16.00;8.43;;;10.70;99.90;;;;;;4986564;28;20051;-55
2023/10/26 10:32:51;;;;;;;14.20;8.40;;;10.80;99.90;;;;;;4992403;28;20042;-55
2023/10/26 10:35:43;;;;;;;16.63;7.70;;;10.80;99.90;;;;;;4991957;28;20043;-56
2023/10/26 10:38:11;;;;;;;16.80;8.75;;;10.90;99.90;;;;;;4991802;28;20406;-55
2023/10/26 10:40:40;;;;;;;18.55;9.13;;;11.00;99.90;;;;;;4988253;28;20042;-56
2023/10/26 10:43:09;;;;;;;14.90;8.10;;;11.10;99.90;;;;;;4986683;28;20058;-56
2023/10/26 10:45:39;;;;;;;18.55;9.45;;;11.10;99.90;;;;;;4983210;28;20054;-55
2023/10/26 10:48:07;;;;;;;17.70;8.48;;;11.10;99.90;;;;;;4987547;28;20050;-56
2023/10/26 10:50:35;;;;;;;18.40;8.52;;;11.10;99.90;;;;;;4988725;28;20053;-57
2023/10/26 10:53:05;;;;;;;20.00;9.10;;;11.10;99.90;;;;;;4990851;28;20491;-56
2023/10/26 10:55:32;;;;;;;17.83;8.77;;;11.10;99.90;;;;;;4989296;28;20043;-56
2023/10/26 10:58:02;;;;;;;18.63;9.88;;;11.10;99.90;;;;;;4982865;28;20042;-58
2023/10/26 11:00:49;;;;;;;20.85;10.05;;;11.10;99.90;;;;;;4991564;28;20073;-57
2023/10/26 11:03:21;;;;;;;25.00;10.45;;;11.10;99.90;;;;;;4988897;28;20458;-56
2023/10/26 11:05:49;;;;;;;21.95;10.02;;;11.10;99.90;;;;;;4991495;28;20067;-57
2023/10/26 11:08:17;;;;;;;20.38;10.02;;;11.00;99.90;;;;;;4991739;28;20050;-57
2023/10/26 11:10:48;;;;;;;24.00;9.95;;;11.10;99.90;;;;;;4985653;28;20057;-56
2023/10/26 11:13:20;;;;;;;22.23;10.40;;;11.10;99.90;;;;;;4979493;28;20046;-58
2023/10/26 11:15:51;;;;;;;24.17;10.60;;;11.10;99.90;;;;;;4982938;28;20050;-58
2023/10/26 11:18:19;;;;;;;21.23;11.02;;;11.10;99.90;;;;;;4979206;28;20118;-57
2023/10/26 11:20:47;;;;;;;23.83;10.77;;;11.10;99.90;;;;;;4985232;28;20059;-56
2023/10/26 11:23:19;;;;;;;22.60;11.55;;;11.10;99.90;;;;;;4979245;28;20053;-57
2023/10/26 11:25:46;;;;;;;23.15;10.38;;;11.10;99.90;;;;;;4985015;28;20534;-57
2023/10/26 11:28:14;;;;;;;23.67;10.35;;;11.20;99.90;;;;;;4987576;28;20055;-57
2023/10/26 11:30:51;;;;;;;20.88;10.48;;;11.20;99.90;;;;;;4991145;28;20046;-57
2023/10/26 11:33:37;;;;;;;24.65;11.00;;;11.30;99.90;;;;;;4991256;28;20485;-57
2023/10/26 11:36:12;;;;;;;19.35;11.13;;;11.30;99.90;;;;;;4970468;28;20053;-57
2023/10/26 11:38:51;;;;;;;20.50;9.88;;;11.40;99.90;;;;;;4981717;28;20053;-58
2023/10/26 11:41:21;;;;;;;22.00;10.77;;;11.40;99.90;;;;;;4981139;28;20402;-57
2023/10/26 11:43:49;;;;;;;21.80;10.60;;;11.40;99.90;;;;;;4985420;28;20049;-58
2023/10/26 11:46:37;;;;;;;20.13;9.88;;;11.40;99.90;;;;;;4989342;28;20434;-56
2023/10/26 11:49:08;;;;;;;19.00;10.45;;;11.40;99.90;;;;;;4988977;28;20046;-57
2023/10/26 11:51:36;;;;;;;21.15;10.45;;;11.40;99.90;;;;;;4984651;28;20055;-57
2023/10/26 11:54:12;;;;;;;19.38;10.52;;;11.40;99.90;;;;;;4978860;28;20041;-58
2023/10/26 11:56:39;;;;;;;17.42;9.68;;;11.50;99.90;;;;;;4984863;28;20482;-58
2023/10/26 11:59:07;;;;;;;16.33;9.18;;;11.50;99.90;;;;;;4990841;28;20049;-58
2023/10/26 12:01:35;;;;;;;18.85;10.00;;;11.60;99.90;;;;;;4989167;28;20054;-57
2023/10/26 12:04:03;;;;;;;15.90;9.77;;;11.60;99.90;;;;;;4987261;28;20046;-57
2023/10/26 12:06:31;;;;;;;18.48;10.00;;;11.70;99.90;;;;;;4988883;28;20486;-57
2023/10/26 12:08:58;;;;;;;14.75;8.88;;;11.90;99.90;;;;;;4990390;28;20054;-57
2023/10/26 12:11:26;;;;;;;15.20;8.50;;;12.00;99.90;;;;;;4983424;28;20440;-57
2023/10/26 12:13:54;;;;;;;12.52;7.28;;;12.10;99.90;;;;;;4978066;28;20074;-58
2023/10/26 12:16:22;;;;;;;11.82;7.60;;;12.30;99.90;;;;;;4990762;28;20061;-57
2023/10/26 12:18:49;;;;;;;8.35;5.65;;;12.60;99.90;;;;;;4990537;28;20047;-58
2023/10/26 12:21:17;;;;;;;9.38;6.20;;;13.40;99.90;;;;;;4990127;28;20069;-57
2023/10/26 12:23:45;;;;;;;7.25;5.45;;;14.20;99.90;;;;;;4989183;28;20127;-58
2023/10/26 12:26:13;;;;;;;8.10;4.72;;;14.80;99.90;;;;;;4986616;28;20067;-58
2023/10/26 12:28:40;;;;;;;7.28;3.70;;;15.20;99.90;;;;;;4985603;28;20050;-58
2023/10/26 12:31:08;;;;;;;6.35;3.88;;;15.50;99.90;;;;;;4953693;28;20499;-58
2023/10/26 12:33:36;;;;;;;8.23;3.72;;;15.60;99.90;;;;;;4974689;28;20054;-57
2023/10/26 12:36:07;;;;;;;6.18;3.67;;;15.50;99.90;;;;;;4990037;28;20499;-58
2023/10/26 12:38:35;;;;;;;5.00;3.53;;;15.40;99.90;;;;;;4989834;28;20046;-57
2023/10/26 12:41:03;;;;;;;7.65;4.00;;;15.20;99.90;;;;;;4988204;28;20054;-57
2023/10/26 12:43:30;;;;;;;6.32;3.63;;;15.00;99.90;;;;;;4973899;28;20383;-58
2023/10/26 12:45:58;;;;;;;6.25;4.03;;;14.80;99.90;;;;;;4988854;28;20093;-58
2023/10/26 12:48:26;;;;;;;6.80;3.80;;;14.50;99.90;;;;;;4989875;28;20050;-58